createdAt,value
2022-10-14T00:01:33.203Z,14.83
2022-10-14T00:04:02.582Z,13.70
2022-10-14T00:06:33.519Z,13.93
2022-10-14T00:09:06.062Z,13.80
2022-10-14T00:11:36.865Z,13.13
2022-10-14T00:14:07.795Z,14.17
2022-10-14T00:16:41.112Z,14.10
2022-10-14T00:19:12.882Z,14.30
2022-10-14T00:21:43.958Z,15.20
2022-10-14T00:24:16.199Z,13.97
2022-10-14T00:26:45.352Z,13.93
2022-10-14T00:29:17.961Z,13.97
2022-10-14T00:31:47.025Z,13.53
2022-10-14T00:34:17.635Z,13.93
2022-10-14T00:36:46.385Z,13.90
2022-10-14T00:39:21.900Z,14.97
2022-10-14T00:41:50.896Z,11.60
2022-10-14T00:45:10.654Z,14.80
2022-10-14T00:47:40.255Z,15.20
2022-10-14T00:50:11.370Z,15.27
2022-10-14T00:52:40.422Z,13.87
2022-10-14T00:55:16.101Z,15.23
2022-10-14T00:57:45.557Z,15.37
2022-10-14T01:00:17.226Z,15.03
2022-10-14T01:02:47.094Z,15.17
2022-10-14T01:05:17.795Z,15.83
2022-10-14T01:07:55.903Z,14.90
2022-10-14T01:10:34.523Z,15.63
2022-10-14T01:13:24.142Z,16.23
2022-10-14T01:16:03.209Z,15.53
2022-10-14T01:18:47.972Z,15.83
2022-10-14T01:21:21.686Z,15.87
2022-10-14T01:24:28.170Z,16.13
2022-10-14T01:27:19.294Z,16.70
2022-10-14T01:30:10.680Z,15.87
2022-10-14T01:33:02.632Z,16.80
2022-10-14T01:35:56.127Z,17.67
2022-10-14T01:38:30.831Z,16.83
2022-10-14T01:41:07.580Z,16.10
2022-10-14T01:43:37.621Z,15.77
2022-10-14T01:46:28.993Z,15.97
2022-10-14T01:49:03.403Z,15.63
2022-10-14T01:51:53.719Z,16.23
2022-10-14T01:54:27.482Z,15.93
2022-10-14T01:57:00.572Z,15.83
2022-10-14T01:59:30.930Z,16.20
2022-10-14T02:02:01.371Z,15.97
2022-10-14T02:04:30.574Z,16.63
2022-10-14T02:07:15.084Z,16.57
2022-10-14T02:09:50.484Z,16.33
2022-10-14T02:12:29.606Z,15.93
2022-10-14T02:15:07.115Z,21.53
2022-10-14T02:17:43.742Z,21.10
2022-10-14T02:20:25.134Z,19.23
2022-10-14T02:22:59.814Z,20.13
2022-10-14T02:25:33.467Z,19.83
2022-10-14T02:28:04.308Z,17.50
2022-10-14T02:30:37.366Z,17.43
2022-10-14T02:33:08.392Z,18.20
2022-10-14T02:35:40.295Z,17.57
2022-10-14T02:38:09.777Z,18.00
2022-10-14T02:40:43.091Z,18.07
2022-10-14T02:43:12.455Z,17.67
2022-10-14T02:45:43.089Z,18.27
2022-10-14T02:48:14.503Z,18.00
2022-10-14T02:50:43.624Z,17.23
2022-10-14T02:53:17.452Z,17.53
2022-10-14T02:55:47.766Z,17.90
2022-10-14T02:58:16.666Z,17.50
2022-10-14T03:00:45.607Z,17.07
2022-10-14T03:03:16.803Z,17.90
2022-10-14T03:05:46.374Z,18.10
2022-10-14T03:08:16.955Z,17.97
2022-10-14T03:10:48.513Z,17.10
2022-10-14T03:13:18.613Z,18.00
2022-10-14T03:15:50.691Z,17.10
2022-10-14T03:18:23.143Z,17.57
2022-10-14T03:20:57.071Z,18.43
2022-10-14T03:23:44.284Z,17.60
2022-10-14T03:26:14.100Z,17.23
2022-10-14T03:29:01.706Z,17.10
2022-10-14T03:31:47.647Z,17.90
2022-10-14T03:34:34.523Z,18.17
2022-10-14T03:37:07.976Z,18.53
2022-10-14T03:39:45.278Z,18.07
2022-10-14T03:42:15.242Z,18.70
2022-10-14T03:44:48.215Z,20.23
2022-10-14T03:47:24.249Z,19.43
2022-10-14T03:49:54.667Z,20.40
2022-10-14T03:52:33.421Z,19.80
2022-10-14T03:55:22.479Z,19.33
2022-10-14T03:57:52.778Z,20.30
2022-10-14T04:00:22.303Z,19.93
2022-10-14T04:03:00.889Z,20.23
2022-10-14T04:05:37.435Z,20.33
2022-10-14T04:08:12.160Z,20.40
2022-10-14T04:10:45.102Z,20.47
2022-10-14T04:13:16.617Z,21.93
2022-10-14T04:15:45.437Z,23.33
2022-10-14T04:18:22.060Z,22.70
2022-10-14T04:20:55.228Z,24.00
2022-10-14T04:23:26.753Z,24.00
2022-10-14T04:26:00.031Z,23.63
2022-10-14T04:28:29.190Z,24.03
2022-10-14T04:31:07.369Z,22.20
2022-10-14T04:33:48.378Z,22.37
2022-10-14T04:36:24.696Z,22.80
2022-10-14T04:38:54.301Z,21.80
2022-10-14T04:41:23.373Z,20.63
2022-10-14T04:43:52.977Z,21.67
2022-10-14T04:46:31.950Z,20.03
2022-10-14T04:49:06.502Z,20.70
2022-10-14T04:51:42.405Z,19.63
2022-10-14T04:54:39.960Z,19.70
2022-10-14T04:57:10.177Z,20.33
2022-10-14T04:59:40.203Z,19.40
2022-10-14T05:02:27.369Z,19.67
2022-10-14T05:05:01.149Z,19.10
2022-10-14T05:07:36.485Z,19.50
2022-10-14T05:10:20.872Z,18.93
2022-10-14T05:12:50.546Z,20.03
2022-10-14T05:15:20.416Z,19.17
2022-10-14T05:18:00.819Z,21.23
2022-10-14T05:20:48.217Z,20.50
2022-10-14T05:23:18.778Z,19.20
2022-10-14T05:25:48.266Z,18.57
2022-10-14T05:28:18.012Z,19.03
2022-10-14T05:30:47.483Z,18.37
2022-10-14T05:33:16.221Z,19.07
2022-10-14T05:36:00.799Z,18.47
2022-10-14T05:38:35.106Z,18.37
2022-10-14T05:41:05.115Z,21.33
2022-10-14T05:43:34.486Z,26.37
2022-10-14T05:46:06.971Z,33.30
2022-10-14T05:48:40.092Z,45.73
2022-10-14T05:51:09.468Z,38.20
2022-10-14T05:53:41.120Z,35.20
2022-10-14T05:56:16.033Z,38.13
2022-10-14T05:58:44.767Z,30.83
2022-10-14T06:01:13.693Z,22.43
2022-10-14T06:03:44.505Z,19.87
2022-10-14T06:06:14.769Z,18.47
2022-10-14T06:08:46.331Z,20.20
2022-10-14T06:11:15.165Z,18.80
2022-10-14T06:13:44.051Z,18.87
2022-10-14T06:16:13.383Z,18.27
2022-10-14T06:18:42.248Z,18.43
2022-10-14T06:21:12.832Z,18.27
2022-10-14T06:23:41.619Z,19.37
2022-10-14T06:26:12.008Z,19.97
2022-10-14T06:28:40.888Z,21.33
2022-10-14T06:31:09.958Z,19.70
2022-10-14T06:33:39.032Z,18.80
2022-10-14T06:36:08.580Z,20.23
2022-10-14T06:38:37.418Z,19.40
2022-10-14T06:41:06.314Z,21.13
2022-10-14T06:43:36.601Z,20.20
2022-10-14T06:46:08.864Z,19.03
2022-10-14T06:48:37.987Z,19.00
2022-10-14T06:51:06.835Z,19.43
2022-10-14T06:53:35.562Z,20.50
2022-10-14T06:56:06.397Z,18.20
2022-10-14T06:58:36.707Z,19.00
2022-10-14T07:01:06.886Z,17.57
2022-10-14T07:03:38.983Z,15.13
2022-10-14T07:06:09.593Z,15.27
2022-10-14T07:08:38.476Z,15.93
2022-10-14T07:11:07.512Z,16.20
2022-10-14T07:13:38.107Z,15.63
2022-10-14T07:16:07.513Z,14.50
2022-10-14T07:18:36.220Z,16.90
2022-10-14T07:21:05.518Z,16.53
2022-10-14T07:23:34.428Z,16.17
2022-10-14T07:26:03.383Z,19.53
2022-10-14T07:28:34.332Z,20.40
2022-10-14T07:31:06.565Z,15.77
2022-10-14T07:36:08.164Z,14.73
2022-10-14T07:38:37.645Z,15.17
2022-10-14T07:41:10.704Z,14.43
2022-10-14T07:43:39.611Z,15.13
2022-10-14T07:46:10.029Z,15.37
2022-10-14T07:48:55.796Z,13.53
2022-10-14T07:51:25.832Z,14.17
2022-10-14T07:53:55.108Z,14.03
2022-10-14T07:56:24.440Z,14.73
2022-10-14T07:58:54.098Z,16.17
2022-10-14T08:01:24.820Z,14.77
2022-10-14T08:03:53.863Z,15.77
2022-10-14T08:06:23.446Z,14.10
2022-10-14T08:08:52.470Z,16.37
2022-10-14T08:11:24.163Z,15.63
2022-10-14T08:13:53.644Z,16.03
2022-10-14T08:16:26.280Z,15.60
2022-10-14T08:18:58.265Z,16.83
2022-10-14T08:21:27.411Z,16.07
2022-10-14T08:23:56.246Z,16.40
2022-10-14T08:26:29.847Z,16.13
2022-10-14T08:29:00.189Z,14.87
2022-10-14T08:31:31.261Z,17.20
2022-10-14T08:34:00.034Z,16.60
2022-10-14T08:36:28.904Z,17.40
2022-10-14T08:38:58.126Z,19.23
2022-10-14T08:41:37.238Z,17.37
2022-10-14T08:44:16.373Z,17.97
2022-10-14T08:46:52.121Z,21.00
2022-10-14T08:49:27.612Z,20.63
2022-10-14T08:52:02.508Z,19.70
2022-10-14T08:54:40.901Z,18.63
2022-10-14T08:57:35.037Z,21.87
2022-10-14T09:00:05.397Z,20.37
2022-10-14T09:02:44.050Z,18.60
2022-10-14T09:05:17.188Z,18.93
2022-10-14T09:07:47.832Z,18.67
2022-10-14T09:10:22.340Z,16.57
2022-10-14T09:12:53.502Z,16.47
2022-10-14T09:15:28.250Z,16.97
2022-10-14T09:18:07.526Z,15.97
2022-10-14T09:20:36.482Z,16.30
2022-10-14T09:23:17.308Z,16.30
2022-10-14T09:25:55.406Z,17.07
2022-10-14T09:28:32.760Z,18.10
2022-10-14T09:31:01.605Z,16.63
2022-10-14T09:33:37.116Z,17.97
2022-10-14T09:36:13.324Z,16.97
2022-10-14T09:38:42.284Z,20.73
2022-10-14T09:41:15.245Z,19.07
2022-10-14T09:44:21.750Z,20.57
2022-10-14T09:46:54.134Z,20.47
2022-10-14T09:49:35.113Z,16.57
2022-10-14T09:52:04.298Z,22.80
2022-10-14T09:54:45.621Z,29.40
2022-10-14T09:57:20.065Z,23.17
2022-10-14T09:59:55.293Z,18.03
2022-10-14T10:02:27.072Z,21.40
2022-10-14T10:04:57.507Z,19.23
2022-10-14T10:07:31.377Z,16.30
2022-10-14T10:10:01.860Z,15.87
2022-10-14T10:12:32.959Z,15.63
2022-10-14T10:15:04.872Z,17.67
2022-10-14T10:17:36.234Z,17.17
2022-10-14T10:20:19.829Z,18.10
2022-10-14T10:22:49.201Z,18.03
2022-10-14T10:25:26.512Z,16.67
2022-10-14T10:27:58.694Z,17.00
2022-10-14T10:30:29.302Z,17.40
2022-10-14T10:33:16.560Z,19.97
2022-10-14T10:36:05.536Z,17.90
2022-10-14T10:38:41.789Z,18.90
2022-10-14T10:41:27.671Z,18.40
2022-10-14T10:44:17.140Z,18.70
2022-10-14T10:47:08.639Z,19.23
2022-10-14T10:50:16.694Z,21.53
2022-10-14T10:53:01.533Z,17.60
2022-10-14T10:55:40.499Z,17.97
2022-10-14T10:58:21.866Z,18.27
2022-10-14T11:01:02.023Z,18.43
2022-10-14T11:03:43.057Z,18.90
2022-10-14T11:06:37.678Z,19.23
2022-10-14T11:09:37.526Z,18.60
2022-10-14T11:12:15.890Z,16.10
2022-10-14T11:15:13.597Z,17.87
2022-10-14T11:17:51.490Z,17.30
2022-10-14T11:20:29.889Z,17.47
2022-10-14T11:23:23.681Z,16.80
2022-10-14T11:25:59.536Z,16.97
2022-10-14T11:28:38.475Z,16.70
2022-10-14T11:31:16.267Z,17.33
2022-10-14T11:34:04.591Z,18.23
2022-10-14T11:36:41.338Z,19.40
2022-10-14T11:39:21.663Z,18.27
2022-10-14T11:42:21.750Z,18.43
2022-10-14T11:45:11.892Z,17.60
2022-10-14T11:47:48.480Z,18.40
2022-10-14T11:50:23.431Z,18.03
2022-10-14T11:52:58.452Z,18.10
2022-10-14T11:55:31.758Z,17.37
2022-10-14T11:58:07.045Z,18.67
2022-10-14T12:00:39.329Z,17.63
2022-10-14T12:03:16.546Z,19.27
2022-10-14T12:05:49.921Z,18.53
2022-10-14T12:08:27.659Z,19.97
2022-10-14T12:11:04.605Z,20.07
2022-10-14T12:13:41.784Z,19.87
2022-10-14T12:16:15.218Z,19.67
2022-10-14T12:18:45.935Z,20.80
2022-10-14T12:21:21.095Z,20.17
2022-10-14T12:23:53.115Z,20.33
2022-10-14T12:26:47.351Z,20.47
2022-10-14T12:29:21.975Z,19.13
2022-10-14T12:32:06.758Z,19.50
2022-10-14T12:34:38.533Z,18.70
2022-10-14T12:37:50.647Z,19.53
2022-10-14T12:40:30.296Z,20.53
2022-10-14T12:43:05.634Z,19.50
2022-10-14T12:45:37.223Z,19.23
2022-10-14T12:48:14.234Z,19.17
2022-10-14T12:50:44.037Z,19.27
2022-10-14T12:53:22.800Z,18.47
2022-10-14T12:55:54.242Z,18.63
2022-10-14T12:58:30.493Z,20.60
2022-10-14T13:01:04.703Z,20.13
2022-10-14T13:03:45.394Z,19.60
2022-10-14T13:06:36.656Z,19.57
2022-10-14T13:09:31.044Z,20.27
2022-10-14T13:12:41.400Z,19.80
2022-10-14T13:15:34.461Z,19.27
2022-10-14T13:18:38.550Z,20.40
2022-10-14T13:21:10.234Z,18.67
2022-10-14T13:23:42.664Z,18.63
2022-10-14T13:26:23.617Z,19.90
2022-10-14T13:29:07.678Z,22.63
2022-10-14T13:31:41.619Z,19.27
2022-10-14T13:34:21.829Z,19.93
2022-10-14T13:37:02.229Z,18.43
2022-10-14T13:39:34.247Z,18.20
2022-10-14T13:42:03.926Z,18.67
2022-10-14T13:44:32.790Z,19.60
2022-10-14T13:47:04.029Z,18.23
2022-10-14T13:49:47.862Z,17.50
2022-10-14T13:52:25.030Z,17.90
2022-10-14T13:55:21.238Z,16.97
2022-10-14T13:58:19.285Z,17.53
2022-10-14T14:01:02.485Z,20.17
2022-10-14T14:03:37.082Z,17.73
2022-10-14T14:06:12.318Z,18.97
2022-10-14T14:08:56.769Z,14.70
2022-10-14T14:11:27.966Z,14.43
2022-10-14T14:14:01.361Z,14.47
2022-10-14T14:16:36.906Z,15.33
2022-10-14T14:19:09.521Z,17.77
2022-10-14T14:21:40.458Z,17.77
2022-10-14T14:24:18.758Z,16.60
2022-10-14T14:26:56.104Z,16.73
2022-10-14T14:29:30.112Z,15.70
2022-10-14T14:32:08.653Z,15.73
2022-10-14T14:34:39.928Z,17.03
2022-10-14T14:37:40.269Z,16.20
2022-10-14T14:40:09.422Z,17.43
2022-10-14T14:42:41.185Z,25.23
2022-10-14T14:45:18.148Z,17.27
2022-10-14T14:47:51.701Z,18.90
2022-10-14T14:50:31.234Z,16.40
2022-10-14T14:53:05.203Z,16.43
2022-10-14T14:55:40.515Z,15.60
2022-10-14T14:58:24.686Z,15.87
2022-10-14T15:00:55.243Z,16.60
2022-10-14T15:03:26.549Z,17.77
2022-10-14T15:05:59.405Z,17.30
2022-10-14T15:08:32.522Z,16.87
2022-10-14T15:11:03.020Z,17.17
2022-10-14T15:13:48.835Z,17.77
2022-10-14T15:16:36.131Z,19.90
2022-10-14T15:19:39.983Z,17.73
2022-10-14T15:22:31.744Z,33.30
2022-10-14T15:25:14.100Z,30.70
2022-10-14T15:27:55.105Z,27.53
2022-10-14T15:30:28.447Z,24.53
2022-10-14T15:33:02.996Z,23.57
2022-10-14T15:35:39.608Z,22.23
2022-10-14T15:38:15.950Z,21.27
2022-10-14T15:40:48.449Z,21.60
2022-10-14T15:43:24.050Z,23.40
2022-10-14T15:46:13.172Z,22.67
2022-10-14T15:48:47.566Z,20.93
2022-10-14T15:51:35.107Z,19.43
2022-10-14T15:54:03.955Z,17.73
2022-10-14T15:56:52.820Z,16.53
2022-10-14T15:59:21.971Z,16.60
2022-10-14T16:01:51.101Z,15.70
2022-10-14T16:04:42.004Z,16.10
2022-10-14T16:07:24.039Z,16.03
2022-10-14T16:09:53.709Z,16.20
2022-10-14T16:12:23.823Z,17.13
2022-10-14T16:14:52.516Z,16.43
2022-10-14T16:17:21.708Z,18.83
2022-10-14T16:19:51.027Z,17.50
2022-10-14T16:22:19.824Z,16.07
2022-10-14T16:24:48.806Z,15.63
2022-10-14T16:27:17.890Z,15.33
2022-10-14T16:29:48.063Z,15.70
2022-10-14T16:32:17.623Z,16.53
2022-10-14T16:34:46.536Z,15.93
2022-10-14T16:37:15.168Z,15.90
2022-10-14T16:39:44.030Z,16.63
2022-10-14T16:42:13.738Z,15.73
2022-10-14T16:44:42.708Z,15.97
2022-10-14T16:47:19.881Z,15.37
2022-10-14T16:49:52.117Z,15.00
2022-10-14T16:52:21.557Z,14.93
2022-10-14T16:54:50.608Z,14.70
2022-10-14T16:57:19.684Z,14.70
2022-10-14T16:59:48.371Z,15.23
2022-10-14T17:02:21.756Z,16.30
2022-10-14T17:04:51.642Z,17.10
2022-10-14T17:07:20.486Z,19.40
2022-10-14T17:09:49.342Z,18.27
2022-10-14T17:12:19.507Z,19.30
2022-10-14T17:14:48.504Z,21.97
2022-10-14T17:17:18.845Z,22.17
2022-10-14T17:19:48.875Z,21.13
2022-10-14T17:22:19.880Z,20.60
2022-10-14T17:24:49.399Z,22.47
2022-10-14T17:27:19.671Z,23.93
2022-10-14T17:29:48.643Z,24.43
2022-10-14T17:32:18.916Z,26.40
2022-10-14T17:34:49.602Z,25.40
2022-10-14T17:37:21.346Z,25.93
2022-10-14T17:39:50.162Z,25.60
2022-10-14T17:42:19.061Z,25.53
2022-10-14T17:44:49.395Z,24.07
2022-10-14T17:47:20.129Z,25.30
2022-10-14T17:49:50.610Z,27.80
2022-10-14T17:52:19.543Z,25.73
2022-10-14T17:54:48.355Z,25.87
2022-10-14T17:57:17.126Z,24.80
2022-10-14T17:59:45.889Z,25.27
2022-10-14T18:02:20.331Z,24.03
2022-10-14T18:05:08.535Z,27.07
2022-10-14T18:07:39.036Z,24.27
2022-10-14T18:10:08.275Z,24.23
2022-10-14T18:12:37.088Z,22.33
2022-10-14T18:15:06.745Z,20.67
2022-10-14T18:17:37.545Z,19.67
2022-10-14T18:20:07.357Z,19.07
2022-10-14T18:22:36.431Z,20.17
2022-10-14T18:25:06.891Z,19.77
2022-10-14T18:27:35.723Z,20.67
2022-10-14T18:30:04.647Z,19.63
2022-10-14T18:32:33.470Z,17.47
2022-10-14T18:35:05.375Z,17.07
2022-10-14T18:37:34.658Z,17.00
2022-10-14T18:40:03.398Z,16.00
2022-10-14T18:42:32.128Z,15.90
2022-10-14T18:45:00.998Z,16.13
2022-10-14T18:47:29.694Z,14.63
2022-10-14T18:49:59.884Z,14.77
2022-10-14T18:52:30.300Z,15.03
2022-10-14T18:54:59.198Z,16.20
2022-10-14T18:57:27.951Z,16.47
2022-10-14T18:59:56.884Z,17.07
2022-10-14T19:02:26.022Z,17.03
2022-10-14T19:04:56.178Z,16.93
2022-10-14T19:07:26.166Z,17.57
2022-10-14T19:09:57.920Z,16.67
2022-10-14T19:12:45.130Z,16.23
2022-10-14T19:15:14.050Z,15.57
2022-10-14T19:17:43.066Z,16.70
2022-10-14T19:20:11.982Z,18.57
2022-10-14T19:22:44.993Z,21.17
2022-10-14T19:25:16.683Z,21.43
2022-10-14T19:27:45.742Z,18.27
2022-10-14T19:30:14.733Z,17.37
2022-10-14T19:32:43.642Z,16.73
2022-10-14T19:35:12.546Z,17.43
2022-10-14T19:37:41.294Z,16.70
2022-10-14T19:40:10.945Z,16.67
2022-10-14T19:42:41.239Z,15.57
2022-10-14T19:45:10.566Z,15.37
2022-10-14T19:47:39.315Z,15.37
2022-10-14T19:50:09.215Z,15.10
2022-10-14T19:52:38.194Z,16.10
2022-10-14T19:55:07.979Z,16.70
2022-10-14T19:57:36.829Z,17.17
2022-10-14T20:00:08.415Z,16.43
2022-10-14T20:05:07.970Z,15.83
2022-10-14T20:07:36.795Z,16.07
2022-10-14T20:10:06.151Z,16.33
2022-10-14T20:12:35.103Z,15.47
2022-10-14T20:15:04.054Z,16.70
2022-10-14T20:17:34.799Z,15.13
2022-10-14T20:20:03.644Z,14.90
2022-10-14T20:22:33.628Z,16.60
2022-10-14T20:25:02.627Z,17.60
2022-10-14T20:27:31.596Z,19.00
2022-10-14T20:30:00.694Z,17.60
2022-10-14T20:32:30.137Z,16.10
2022-10-14T20:35:00.464Z,16.07
2022-10-14T20:37:33.020Z,15.57
2022-10-14T20:40:01.933Z,15.93
2022-10-14T20:42:30.658Z,15.80
2022-10-14T20:44:59.568Z,16.10
2022-10-14T20:47:28.472Z,14.77
2022-10-14T20:49:57.366Z,16.13
2022-10-14T20:52:27.666Z,15.63
2022-10-14T20:54:56.571Z,15.23
2022-10-14T20:57:25.485Z,14.77
2022-10-14T20:59:54.465Z,14.90
2022-10-14T21:02:23.432Z,14.93
2022-10-14T21:04:53.474Z,15.17
2022-10-14T21:07:23.347Z,15.23
2022-10-14T21:09:53.941Z,15.30
2022-10-14T21:12:23.213Z,14.83
2022-10-14T21:14:52.186Z,14.67
2022-10-14T21:17:21.053Z,15.37
2022-10-14T21:19:50.271Z,14.60
2022-10-14T21:22:19.114Z,15.17
2022-10-14T21:24:47.989Z,15.60
2022-10-14T21:27:18.199Z,15.13
2022-10-14T21:29:48.907Z,14.87
2022-10-14T21:32:18.033Z,15.23
2022-10-14T21:34:46.820Z,16.97
2022-10-14T21:37:17.953Z,16.70
2022-10-14T21:39:46.789Z,16.40
2022-10-14T21:42:15.708Z,16.67
2022-10-14T21:44:45.874Z,16.07
2022-10-14T21:47:15.290Z,16.53
2022-10-14T21:49:44.227Z,16.10
2022-10-14T21:52:13.154Z,18.60
2022-10-14T21:54:41.816Z,19.13
2022-10-14T21:57:10.854Z,17.63
2022-10-14T21:59:39.602Z,16.87
2022-10-14T22:02:10.138Z,18.10
2022-10-14T22:04:39.049Z,20.03
2022-10-14T22:07:07.835Z,22.70
2022-10-14T22:09:36.588Z,22.70
2022-10-14T22:12:05.749Z,20.77
2022-10-14T22:14:34.492Z,20.37
2022-10-14T22:17:03.285Z,20.90
2022-10-14T22:19:33.607Z,17.27
2022-10-14T22:22:03.440Z,17.47
2022-10-14T22:24:32.367Z,16.97
2022-10-14T22:27:01.189Z,16.57
2022-10-14T22:29:29.983Z,16.63
2022-10-14T22:31:58.894Z,15.93
2022-10-14T22:34:27.638Z,15.50
2022-10-14T22:36:58.095Z,14.97
2022-10-14T22:39:27.370Z,16.03
2022-10-14T22:41:56.226Z,14.97
2022-10-14T22:44:24.941Z,14.33
2022-10-14T22:46:55.245Z,15.20
2022-10-14T22:49:24.219Z,14.70
2022-10-14T22:51:55.948Z,14.73
2022-10-14T22:54:27.592Z,15.60
2022-10-14T22:56:56.462Z,14.53
2022-10-14T22:59:25.457Z,14.67
2022-10-14T23:01:54.291Z,15.50
2022-10-14T23:04:23.133Z,14.23
2022-10-14T23:06:52.865Z,14.60
2022-10-14T23:09:21.715Z,14.30
2022-10-14T23:11:51.948Z,14.77
2022-10-14T23:14:20.678Z,14.97
2022-10-14T23:16:49.421Z,14.93
2022-10-14T23:19:18.092Z,15.03
2022-10-14T23:21:46.922Z,15.80
2022-10-14T23:24:15.927Z,15.07
2022-10-14T23:26:44.827Z,15.57
2022-10-14T23:29:15.132Z,15.13
2022-10-14T23:31:44.106Z,15.10
2022-10-14T23:34:14.383Z,15.73
2022-10-14T23:36:43.674Z,15.73
2022-10-14T23:39:12.852Z,15.80
2022-10-14T23:41:41.707Z,16.20
2022-10-14T23:44:12.349Z,15.70
2022-10-14T23:47:01.089Z,15.57
2022-10-14T23:49:29.867Z,16.40
2022-10-14T23:51:58.640Z,16.80
2022-10-14T23:54:27.627Z,17.10
2022-10-14T23:56:56.589Z,16.77
2022-10-14T23:59:25.522Z,17.47
